Time;durP1;ratioP1;P1;durP2;ratioP2;P2;SDS_P1;SDS_P2;PMS_P1;PMS_P2;Temp;Humidity;BMP_temperature;BMP_pressure;BME280_temperature;BME280_humidity;BME280_pressure;Samples;Min_cycle;Max_cycle;Signal;HPM_P1;HPM_P2
2021/11/26 00:00:08;;;;;;;48.90;18.70;;;1.20;99.90;;;;;;5020319;28;20871;-60
2021/11/26 00:02:34;;;;;;;55.17;18.90;;;1.20;99.90;;;;;;5011053;28;20441;-60
2021/11/26 00:05:02;;;;;;;48.03;19.80;;;1.20;99.90;;;;;;5020748;28;20806;-59
2021/11/26 00:07:27;;;;;;;47.30;18.83;;;1.20;99.90;;;;;;5016715;28;20677;-60
2021/11/26 00:09:53;;;;;;;48.80;17.93;;;1.20;99.90;;;;;;5018511;28;20494;-60
2021/11/26 00:12:19;;;;;;;44.97;17.87;;;1.20;99.90;;;;;;5025314;28;20172;-60
2021/11/26 00:17:27;;;;;;;43.20;18.90;;;1.10;99.90;;;;;;5029403;28;20452;-61
2021/11/26 00:19:53;;;;;;;47.50;18.27;;;1.10;99.90;;;;;;5016249;28;20831;-61
2021/11/26 00:22:19;;;;;;;46.63;17.13;;;1.10;99.90;;;;;;5047616;28;20439;-59
2021/11/26 00:24:45;;;;;;;52.73;17.73;;;1.10;99.90;;;;;;5036844;28;20441;-61
2021/11/26 00:27:10;;;;;;;40.40;18.60;;;1.10;99.90;;;;;;5014243;28;20426;-61
2021/11/26 00:29:36;;;;;;;44.20;18.53;;;1.10;99.90;;;;;;5026298;28;20627;-59
2021/11/26 00:32:02;;;;;;;52.17;18.93;;;1.10;99.90;;;;;;5022139;28;20236;-60
2021/11/26 00:34:28;;;;;;;43.03;17.43;;;1.00;99.90;;;;;;5021482;28;20252;-60
2021/11/26 00:36:53;;;;;;;41.63;17.50;;;1.10;99.90;;;;;;5017726;28;20563;-60
2021/11/26 00:39:19;;;;;;;35.40;15.30;;;1.10;99.90;;;;;;5031962;28;20177;-60
2021/11/26 00:41:45;;;;;;;39.27;16.73;;;1.10;99.90;;;;;;5017301;28;20197;-60
2021/11/26 00:44:10;;;;;;;44.97;16.23;;;1.10;99.90;;;;;;5025819;28;20320;-60
2021/11/26 00:46:36;;;;;;;38.23;15.90;;;1.10;99.90;;;;;;5022908;28;21174;-59
2021/11/26 00:49:03;;;;;;;37.70;16.23;;;1.10;99.90;;;;;;5018684;28;20342;-60
2021/11/26 00:51:31;;;;;;;40.63;17.07;;;1.10;99.90;;;;;;5019756;28;20253;-58
2021/11/26 00:53:58;;;;;;;41.00;16.47;;;1.10;99.90;;;;;;5013813;28;20439;-60
2021/11/26 00:56:24;;;;;;;36.20;15.67;;;1.10;99.90;;;;;;5010872;28;20431;-60
2021/11/26 00:58:50;;;;;;;37.00;15.07;;;1.10;99.90;;;;;;5028361;28;20429;-60
2021/11/26 01:01:16;;;;;;;34.00;14.50;;;1.10;99.90;;;;;;5022912;28;20457;-59
2021/11/26 01:03:42;;;;;;;34.03;15.87;;;1.10;99.90;;;;;;5013121;28;20176;-60
2021/11/26 01:06:08;;;;;;;34.83;14.70;;;1.10;99.90;;;;;;5025684;28;20515;-59
2021/11/26 01:08:34;;;;;;;33.27;14.80;;;1.20;99.90;;;;;;5011392;28;20202;-62
2021/11/26 01:10:59;;;;;;;29.87;14.10;;;1.20;99.90;;;;;;5016558;28;20755;-61
2021/11/26 01:13:26;;;;;;;31.23;14.97;;;1.20;99.90;;;;;;5017268;28;20507;-61
2021/11/26 01:15:52;;;;;;;35.10;15.87;;;1.20;99.90;;;;;;5024199;28;20175;-60
2021/11/26 01:18:18;;;;;;;35.00;16.37;;;1.20;99.90;;;;;;5018069;28;21158;-60
2021/11/26 01:20:44;;;;;;;37.10;16.50;;;1.30;99.90;;;;;;5020986;28;20214;-62
2021/11/26 01:23:10;;;;;;;37.13;16.80;;;1.30;99.90;;;;;;5025185;28;20411;-61
2021/11/26 01:25:35;;;;;;;37.40;17.00;;;1.30;99.90;;;;;;5023311;28;20169;-60
2021/11/26 01:28:02;;;;;;;32.93;15.97;;;1.30;99.90;;;;;;5010214;28;20484;-61
2021/11/26 01:30:35;;;;;;;37.40;15.33;;;1.30;99.90;;;;;;5027419;28;20206;-59
2021/11/26 01:33:03;;;;;;;45.90;17.83;;;1.30;99.90;;;;;;5025496;28;20413;-61
2021/11/26 01:35:30;;;;;;;42.50;17.20;;;1.30;99.90;;;;;;5012284;28;20394;-60
2021/11/26 01:37:56;;;;;;;49.90;19.23;;;1.30;99.90;;;;;;5028465;28;20439;-59
2021/11/26 01:40:22;;;;;;;46.87;18.00;;;1.30;99.90;;;;;;5042529;28;20805;-61
2021/11/26 01:42:50;;;;;;;43.03;19.63;;;1.30;99.90;;;;;;5023652;28;20182;-60
2021/11/26 01:45:17;;;;;;;46.23;18.03;;;1.30;99.90;;;;;;5029839;28;20799;-61
2021/11/26 01:47:43;;;;;;;43.63;17.60;;;1.20;99.90;;;;;;5021246;28;20443;-60
2021/11/26 01:50:10;;;;;;;41.33;17.23;;;1.20;99.90;;;;;;5031335;28;20456;-60
2021/11/26 01:52:36;;;;;;;46.63;18.97;;;1.20;99.90;;;;;;5045263;28;20520;-60
2021/11/26 01:55:03;;;;;;;39.47;17.40;;;1.20;99.90;;;;;;5016310;28;20516;-60
2021/11/26 01:57:29;;;;;;;44.63;17.63;;;1.20;99.90;;;;;;5024865;28;20167;-60
2021/11/26 01:59:55;;;;;;;37.93;16.53;;;1.10;99.90;;;;;;5024046;28;20533;-60
2021/11/26 02:02:21;;;;;;;41.37;18.07;;;1.10;99.90;;;;;;5022867;28;20691;-60
2021/11/26 02:04:47;;;;;;;38.87;15.87;;;1.20;99.90;;;;;;5028617;28;21152;-60
2021/11/26 02:07:13;;;;;;;38.00;17.57;;;1.20;99.90;;;;;;5019258;28;20506;-61
2021/11/26 02:09:39;;;;;;;43.13;16.83;;;1.20;99.90;;;;;;5011241;28;20665;-60
2021/11/26 02:12:06;;;;;;;41.53;17.17;;;1.20;99.90;;;;;;5020226;28;20185;-60
2021/11/26 02:14:32;;;;;;;43.00;17.77;;;1.20;99.90;;;;;;5031649;28;20425;-60
2021/11/26 02:16:58;;;;;;;43.53;19.50;;;1.20;99.90;;;;;;5029588;28;20512;-61
2021/11/26 02:19:25;;;;;;;37.50;16.60;;;1.20;99.90;;;;;;5028479;28;20501;-59
2021/11/26 02:21:52;;;;;;;37.77;16.87;;;1.20;99.90;;;;;;5024206;28;20448;-61
2021/11/26 02:24:18;;;;;;;42.87;18.17;;;1.20;99.90;;;;;;5031401;28;20404;-61
2021/11/26 02:26:47;;;;;;;40.43;16.93;;;1.20;99.90;;;;;;5023491;28;20436;-61
2021/11/26 02:29:15;;;;;;;41.23;18.67;;;1.20;99.90;;;;;;5027865;28;20539;-60
2021/11/26 02:31:41;;;;;;;41.00;17.60;;;1.20;99.90;;;;;;5015661;28;20477;-61
2021/11/26 02:34:07;;;;;;;39.67;18.17;;;1.20;99.90;;;;;;5027029;28;20430;-60
2021/11/26 02:36:33;;;;;;;41.63;17.87;;;1.20;99.90;;;;;;5026912;28;20423;-61
2021/11/26 02:38:59;;;;;;;41.63;17.17;;;1.10;99.90;;;;;;5026379;28;20423;-61
2021/11/26 02:41:26;;;;;;;46.87;18.60;;;1.20;99.90;;;;;;5021799;28;21055;-61
2021/11/26 02:43:52;;;;;;;37.53;16.90;;;1.20;99.90;;;;;;5020203;28;20434;-60
2021/11/26 02:46:21;;;;;;;39.47;16.67;;;1.20;99.90;;;;;;5030412;28;20979;-59
2021/11/26 02:48:46;;;;;;;46.03;18.00;;;1.20;99.90;;;;;;5024637;28;20420;-59
2021/11/26 02:51:13;;;;;;;42.97;16.93;;;1.10;99.90;;;;;;5024377;28;20438;-61
2021/11/26 02:53:41;;;;;;;39.93;16.53;;;1.20;99.90;;;;;;5009414;28;20168;-59
2021/11/26 02:56:07;;;;;;;36.80;16.47;;;1.10;99.90;;;;;;5011374;28;20451;-61
2021/11/26 02:58:32;;;;;;;43.00;18.90;;;1.10;99.90;;;;;;5012618;28;20405;-62
2021/11/26 03:01:00;;;;;;;46.33;18.20;;;1.10;99.90;;;;;;5027670;28;20554;-60
2021/11/26 03:03:27;;;;;;;48.40;19.83;;;1.10;99.90;;;;;;5021888;28;20195;-60
2021/11/26 03:06:03;;;;;;;41.97;17.50;;;1.10;99.90;;;;;;5020969;28;21260;-60
2021/11/26 03:08:30;;;;;;;47.37;18.03;;;1.10;99.90;;;;;;5014683;28;20409;-60
2021/11/26 03:10:57;;;;;;;45.20;18.67;;;1.10;99.90;;;;;;5026636;28;20537;-61
2021/11/26 03:13:24;;;;;;;47.97;19.80;;;1.10;99.90;;;;;;5019645;28;20426;-60
2021/11/26 03:15:50;;;;;;;40.00;17.33;;;1.10;99.90;;;;;;5013477;28;20430;-60
2021/11/26 03:18:18;;;;;;;39.17;17.93;;;1.10;99.90;;;;;;5017769;28;20432;-61
2021/11/26 03:20:49;;;;;;;40.60;17.73;;;1.10;99.90;;;;;;5018115;28;20456;-60
2021/11/26 03:23:16;;;;;;;37.70;16.57;;;1.20;99.90;;;;;;5022901;28;20432;-60
2021/11/26 03:25:42;;;;;;;43.97;18.20;;;1.10;99.90;;;;;;5025423;28;20414;-60
2021/11/26 03:28:09;;;;;;;39.60;16.70;;;1.10;99.90;;;;;;5011103;28;20914;-60
2021/11/26 03:30:35;;;;;;;40.43;16.60;;;1.10;99.90;;;;;;5025165;28;20472;-60
2021/11/26 03:33:01;;;;;;;43.20;17.30;;;1.10;99.90;;;;;;5025307;28;20432;-60
2021/11/26 03:35:27;;;;;;;42.23;16.80;;;1.00;99.90;;;;;;5023099;28;21178;-59
2021/11/26 03:37:54;;;;;;;40.00;17.50;;;1.00;99.90;;;;;;5010084;28;20505;-61
2021/11/26 03:40:22;;;;;;;44.23;18.93;;;1.00;99.90;;;;;;5021815;28;20429;-60
2021/11/26 03:42:50;;;;;;;41.30;18.57;;;1.00;99.90;;;;;;5022925;28;20421;-60
2021/11/26 03:45:19;;;;;;;40.83;17.20;;;1.00;99.90;;;;;;5016681;28;20523;-58
2021/11/26 03:47:46;;;;;;;39.90;15.90;;;1.00;99.90;;;;;;5024546;28;20444;-58
2021/11/26 03:50:13;;;;;;;41.73;16.27;;;0.90;99.90;;;;;;5011878;28;20464;-61
2021/11/26 03:52:39;;;;;;;37.40;16.77;;;0.90;99.90;;;;;;5023919;28;20410;-59
2021/11/26 03:55:08;;;;;;;38.73;16.77;;;0.90;99.90;;;;;;5015996;28;20514;-61
2021/11/26 03:57:37;;;;;;;41.10;17.23;;;0.90;99.90;;;;;;5024296;28;20480;-60
2021/11/26 04:00:06;;;;;;;37.07;16.77;;;0.90;99.90;;;;;;5012344;28;20458;-60
2021/11/26 04:02:32;;;;;;;37.10;16.23;;;0.90;99.90;;;;;;5021393;28;20508;-60
2021/11/26 04:04:57;;;;;;;38.47;15.17;;;0.90;99.90;;;;;;5010022;28;20512;-61
2021/11/26 04:07:23;;;;;;;40.77;16.47;;;0.80;99.90;;;;;;5012284;28;20189;-60
2021/11/26 04:09:49;;;;;;;48.30;19.20;;;0.90;99.90;;;;;;5024178;28;20336;-61
2021/11/26 04:12:14;;;;;;;47.33;18.17;;;0.80;99.90;;;;;;5026576;28;20772;-60
2021/11/26 04:14:40;;;;;;;41.07;15.70;;;0.80;99.90;;;;;;5025624;28;20173;-60
2021/11/26 04:17:10;;;;;;;44.97;18.07;;;0.90;99.90;;;;;;5028496;28;20191;-60
2021/11/26 04:19:37;;;;;;;46.60;17.60;;;0.90;99.90;;;;;;5023503;28;20519;-60
2021/11/26 04:22:02;;;;;;;41.83;17.97;;;0.90;99.90;;;;;;5027744;28;20790;-61
2021/11/26 04:24:28;;;;;;;48.67;17.40;;;0.90;99.90;;;;;;5022747;28;20421;-60
2021/11/26 04:26:54;;;;;;;42.60;17.40;;;0.90;99.90;;;;;;5019174;28;20586;-60
2021/11/26 04:29:19;;;;;;;41.77;17.20;;;0.90;99.90;;;;;;5009439;28;20201;-59
2021/11/26 04:31:45;;;;;;;48.30;19.83;;;0.90;99.90;;;;;;5027965;28;20191;-60
2021/11/26 04:34:11;;;;;;;42.70;16.80;;;0.90;99.90;;;;;;5018279;28;20201;-59
2021/11/26 04:36:37;;;;;;;45.63;18.70;;;0.90;99.90;;;;;;5018711;28;20167;-61
2021/11/26 04:39:03;;;;;;;39.87;15.53;;;0.90;99.90;;;;;;5011328;28;20506;-60
2021/11/26 04:41:29;;;;;;;43.33;17.33;;;0.90;99.90;;;;;;5028589;28;20194;-60
2021/11/26 04:43:55;;;;;;;45.47;16.20;;;0.80;99.90;;;;;;5024738;28;20420;-59
2021/11/26 04:46:20;;;;;;;41.03;16.43;;;0.80;99.90;;;;;;5023048;28;20197;-61
2021/11/26 04:48:47;;;;;;;46.63;16.60;;;0.80;99.90;;;;;;5022879;28;20229;-60
2021/11/26 04:51:13;;;;;;;44.03;17.13;;;0.80;99.90;;;;;;5018920;28;20220;-61
2021/11/26 04:53:38;;;;;;;43.60;17.50;;;0.70;99.90;;;;;;5014244;28;20771;-60
2021/11/26 04:56:04;;;;;;;48.83;18.33;;;0.70;99.90;;;;;;5017034;28;20186;-60
2021/11/26 04:58:35;;;;;;;41.63;17.23;;;0.70;99.90;;;;;;5011724;28;20178;-58
2021/11/26 05:01:01;;;;;;;44.30;16.27;;;0.70;99.90;;;;;;5012108;28;21135;-59
2021/11/26 05:03:26;;;;;;;44.63;16.87;;;0.70;99.90;;;;;;5012067;28;20443;-60
2021/11/26 05:05:52;;;;;;;46.33;18.37;;;0.70;99.90;;;;;;5012424;28;20444;-61
2021/11/26 05:08:19;;;;;;;44.97;17.03;;;0.70;99.90;;;;;;5011863;28;20848;-60
2021/11/26 05:10:51;;;;;;;44.47;17.80;;;0.70;99.90;;;;;;5015892;28;20205;-60
2021/11/26 05:13:19;;;;;;;47.70;17.83;;;0.80;99.90;;;;;;5023334;28;20434;-61
2021/11/26 05:15:44;;;;;;;44.57;18.20;;;0.80;99.90;;;;;;5016694;28;20565;-60
2021/11/26 05:18:10;;;;;;;49.57;17.90;;;0.80;99.90;;;;;;5015994;28;20517;-60
2021/11/26 05:20:36;;;;;;;48.10;18.20;;;0.80;99.90;;;;;;5015548;28;20205;-61
2021/11/26 05:23:02;;;;;;;48.33;17.97;;;0.80;99.90;;;;;;5021045;28;20232;-59
2021/11/26 05:25:28;;;;;;;43.30;17.43;;;0.80;99.90;;;;;;5015419;28;20177;-60
2021/11/26 05:27:54;;;;;;;42.80;17.97;;;0.80;99.90;;;;;;5016563;28;21103;-59
2021/11/26 05:30:20;;;;;;;50.10;19.10;;;0.80;99.90;;;;;;5014326;28;20465;-60
2021/11/26 05:32:48;;;;;;;45.47;18.40;;;0.90;99.90;;;;;;5014800;28;20173;-60
2021/11/26 05:35:14;;;;;;;55.10;19.37;;;0.80;99.90;;;;;;5018259;28;20496;-60
2021/11/26 05:37:40;;;;;;;48.17;18.60;;;0.80;99.90;;;;;;5021443;28;20465;-60
2021/11/26 05:40:08;;;;;;;44.77;18.40;;;0.80;99.90;;;;;;5019017;28;20455;-59
2021/11/26 05:42:34;;;;;;;52.60;21.20;;;0.90;99.90;;;;;;5015438;28;20525;-60
2021/11/26 05:45:02;;;;;;;50.30;19.30;;;0.90;99.90;;;;;;5024925;28;21163;-60
2021/11/26 05:47:27;;;;;;;46.33;19.83;;;0.90;99.90;;;;;;5009994;28;20472;-60
2021/11/26 05:49:53;;;;;;;46.40;18.07;;;0.90;99.90;;;;;;5018000;28;20496;-60
2021/11/26 05:52:19;;;;;;;43.70;17.60;;;0.80;99.90;;;;;;5028287;28;20178;-61
2021/11/26 05:54:44;;;;;;;48.50;20.20;;;0.80;99.90;;;;;;5019843;28;20696;-59
2021/11/26 05:57:10;;;;;;;48.27;19.13;;;0.80;99.90;;;;;;5016351;28;20177;-61
2021/11/26 05:59:36;;;;;;;51.60;19.33;;;0.80;99.90;;;;;;5016332;28;20186;-61
2021/11/26 06:02:02;;;;;;;53.53;20.07;;;0.80;99.90;;;;;;5010331;28;20175;-60
2021/11/26 06:04:30;;;;;;;58.60;20.40;;;0.80;99.90;;;;;;5014285;28;20185;-59
2021/11/26 06:06:56;;;;;;;53.87;18.37;;;0.70;99.90;;;;;;5019785;28;20432;-60
2021/11/26 06:09:21;;;;;;;49.50;19.80;;;0.70;99.90;;;;;;5028869;28;20804;-59
2021/11/26 06:11:47;;;;;;;53.87;21.80;;;0.80;99.90;;;;;;5014341;28;20445;-60
2021/11/26 06:14:14;;;;;;;53.23;20.40;;;0.70;99.90;;;;;;5012166;28;20175;-60
2021/11/26 06:16:39;;;;;;;53.73;20.90;;;0.70;99.90;;;;;;5023161;28;20817;-60
2021/11/26 06:19:05;;;;;;;55.33;20.83;;;0.70;99.90;;;;;;5013092;28;20846;-59
2021/11/26 06:21:31;;;;;;;58.50;21.23;;;0.70;99.90;;;;;;5020307;28;20213;-60
2021/11/26 06:23:57;;;;;;;54.67;20.87;;;0.70;99.90;;;;;;5010215;28;20185;-60
2021/11/26 06:26:23;;;;;;;51.73;20.40;;;0.70;99.90;;;;;;5020937;28;20857;-61
2021/11/26 06:28:48;;;;;;;48.07;20.20;;;0.70;99.90;;;;;;5031396;28;20174;-59
2021/11/26 06:31:14;;;;;;;56.33;21.33;;;0.80;99.90;;;;;;5013116;28;20521;-60
2021/11/26 06:33:39;;;;;;;56.20;20.93;;;0.80;99.90;;;;;;5028993;28;20182;-60
2021/11/26 06:36:05;;;;;;;48.23;20.10;;;0.80;99.90;;;;;;5015842;28;20257;-59
2021/11/26 06:38:31;;;;;;;57.60;20.70;;;0.80;99.90;;;;;;5014830;28;20567;-60
2021/11/26 06:40:56;;;;;;;51.10;19.47;;;0.80;99.90;;;;;;5011019;28;20253;-60
2021/11/26 06:43:22;;;;;;;55.37;19.20;;;0.80;99.90;;;;;;5022967;28;20262;-60
2021/11/26 06:45:48;;;;;;;47.60;19.33;;;0.80;99.90;;;;;;5021924;28;20671;-59
2021/11/26 06:48:14;;;;;;;59.90;22.90;;;0.80;99.90;;;;;;5024249;28;20193;-59
2021/11/26 06:50:39;;;;;;;51.63;19.03;;;0.80;99.90;;;;;;5026129;28;20260;-59
2021/11/26 06:53:06;;;;;;;52.70;19.63;;;0.80;99.90;;;;;;5016660;28;20500;-60
2021/11/26 06:55:32;;;;;;;52.20;19.17;;;0.80;99.90;;;;;;5014128;28;20175;-60
2021/11/26 06:57:58;;;;;;;52.23;19.87;;;0.80;99.90;;;;;;5013823;28;20909;-60
2021/11/26 07:00:25;;;;;;;57.00;20.00;;;0.70;99.90;;;;;;5015285;28;20450;-59
2021/11/26 07:02:51;;;;;;;50.57;21.40;;;0.70;99.90;;;;;;5010796;28;21071;-59
2021/11/26 07:05:17;;;;;;;57.80;21.30;;;0.70;99.90;;;;;;5019141;28;20521;-60
2021/11/26 07:07:43;;;;;;;51.50;19.60;;;0.70;99.90;;;;;;5025637;28;20516;-59
2021/11/26 07:10:10;;;;;;;57.40;21.50;;;0.80;99.90;;;;;;5023290;28;20571;-60
2021/11/26 07:12:36;;;;;;;52.43;20.20;;;0.70;99.90;;;;;;5027048;28;20653;-59
2021/11/26 07:15:05;;;;;;;62.40;22.27;;;0.80;99.90;;;;;;5023387;28;20428;-59
2021/11/26 07:17:31;;;;;;;50.60;20.97;;;0.80;99.90;;;;;;5027819;28;20431;-59
2021/11/26 07:19:57;;;;;;;49.73;21.50;;;0.70;99.90;;;;;;5025987;28;20455;-60
2021/11/26 07:22:23;;;;;;;56.17;21.67;;;0.70;99.90;;;;;;5023012;28;20425;-60
2021/11/26 07:24:48;;;;;;;56.50;20.20;;;0.70;99.90;;;;;;5018470;28;21071;-60
2021/11/26 07:27:14;;;;;;;52.03;21.17;;;0.70;99.90;;;;;;5021530;28;20187;-62
2021/11/26 07:29:40;;;;;;;58.67;21.10;;;0.80;99.90;;;;;;5023091;28;20226;-59
2021/11/26 07:32:07;;;;;;;55.43;21.13;;;0.70;99.90;;;;;;5024871;28;20688;-60
2021/11/26 07:34:33;;;;;;;56.23;19.50;;;0.80;99.90;;;;;;5022915;28;20199;-60
2021/11/26 07:36:59;;;;;;;57.27;21.43;;;0.80;99.90;;;;;;5012383;28;20979;-60
2021/11/26 07:39:31;;;;;;;57.63;21.40;;;0.80;99.90;;;;;;5014804;28;20249;-61
2021/11/26 07:41:57;;;;;;;54.73;20.20;;;0.80;99.90;;;;;;5022256;28;20449;-61
2021/11/26 07:44:23;;;;;;;51.43;20.10;;;0.80;99.90;;;;;;5027284;28;20429;-58
2021/11/26 07:46:48;;;;;;;46.03;20.40;;;0.80;99.90;;;;;;5020530;28;20178;-60
2021/11/26 07:49:14;;;;;;;50.27;17.77;;;0.80;99.90;;;;;;5015941;28;20781;-60
2021/11/26 07:51:39;;;;;;;47.13;19.40;;;0.90;99.90;;;;;;5025843;28;20608;-60
2021/11/26 07:54:05;;;;;;;54.83;19.20;;;0.90;99.90;;;;;;5027436;28;20669;-61
2021/11/26 07:56:31;;;;;;;49.10;19.03;;;0.90;99.90;;;;;;5022026;28;20186;-59
2021/11/26 07:58:56;;;;;;;49.03;19.40;;;0.90;99.90;;;;;;5010441;28;20171;-60
2021/11/26 08:01:22;;;;;;;51.73;20.40;;;0.90;99.90;;;;;;5014836;28;20607;-59
2021/11/26 08:03:48;;;;;;;47.70;21.10;;;0.90;99.90;;;;;;5021952;28;20201;-59
2021/11/26 08:06:14;;;;;;;51.33;20.13;;;1.00;99.90;;;;;;5008855;28;20263;-60
2021/11/26 08:08:40;;;;;;;49.83;17.90;;;1.00;99.90;;;;;;5025193;28;20508;-60
2021/11/26 08:11:06;;;;;;;45.37;18.67;;;1.00;99.90;;;;;;5028775;28;20522;-59
2021/11/26 08:13:32;;;;;;;47.53;18.37;;;1.00;99.90;;;;;;5024607;28;21118;-61
2021/11/26 08:15:58;;;;;;;54.83;20.20;;;1.10;99.90;;;;;;5023235;28;20421;-60
2021/11/26 08:18:24;;;;;;;53.60;19.07;;;1.10;99.90;;;;;;5011849;28;20257;-60
2021/11/26 08:20:49;;;;;;;54.50;20.07;;;1.10;99.90;;;;;;5009861;28;20242;-59
2021/11/26 08:23:15;;;;;;;57.90;21.47;;;1.20;99.90;;;;;;5010974;28;20194;-60
2021/11/26 08:25:41;;;;;;;47.03;18.43;;;1.20;99.90;;;;;;5026014;28;20857;-60
2021/11/26 08:28:06;;;;;;;51.70;21.07;;;1.30;99.90;;;;;;5014983;28;20199;-60
2021/11/26 08:30:32;;;;;;;45.77;17.97;;;1.30;99.90;;;;;;5009656;28;20218;-59
2021/11/26 08:32:58;;;;;;;43.93;17.80;;;1.30;99.90;;;;;;5025469;28;20270;-58
2021/11/26 08:35:25;;;;;;;40.43;16.97;;;1.30;99.90;;;;;;5025940;28;20517;-59
2021/11/26 08:37:51;;;;;;;47.53;18.00;;;1.30;99.90;;;;;;5027163;28;20616;-60
2021/11/26 08:40:18;;;;;;;51.20;20.70;;;1.30;99.90;;;;;;5020701;28;20499;-60
2021/11/26 08:42:45;;;;;;;54.20;20.20;;;1.30;99.90;;;;;;5011984;28;20446;-56
2021/11/26 08:45:11;;;;;;;54.07;21.10;;;1.30;99.90;;;;;;5014695;28;20430;-58
2021/11/26 08:47:39;;;;;;;57.43;22.27;;;1.40;99.90;;;;;;5012332;28;20431;-58
2021/11/26 08:50:05;;;;;;;61.53;21.77;;;1.40;99.90;;;;;;5012673;28;20516;-55
2021/11/26 08:52:32;;;;;;;59.17;20.77;;;1.50;99.90;;;;;;5017511;28;20503;-57
2021/11/26 08:54:58;;;;;;;56.97;20.40;;;1.50;99.90;;;;;;5012776;28;20458;-57
2021/11/26 08:57:28;;;;;;;63.33;20.33;;;1.50;99.90;;;;;;5016394;28;20467;-59
2021/11/26 08:59:54;;;;;;;58.50;20.60;;;1.50;99.90;;;;;;5026181;28;20976;-57
2021/11/26 09:02:19;;;;;;;60.17;20.87;;;1.50;99.90;;;;;;5023875;28;20457;-57
2021/11/26 09:04:45;;;;;;;48.83;19.20;;;1.60;99.90;;;;;;5033545;28;20543;-56
2021/11/26 09:07:11;;;;;;;49.77;19.30;;;1.60;99.90;;;;;;5025642;28;20259;-55
2021/11/26 09:09:37;;;;;;;47.50;15.90;;;1.60;99.90;;;;;;5030564;28;20198;-57
2021/11/26 09:12:04;;;;;;;45.17;18.17;;;1.50;99.90;;;;;;5031668;28;20414;-59
2021/11/26 09:14:29;;;;;;;50.60;18.10;;;1.50;99.90;;;;;;5028985;28;20570;-57
2021/11/26 09:16:55;;;;;;;52.60;19.20;;;1.50;99.90;;;;;;5012876;28;20856;-59
2021/11/26 09:19:21;;;;;;;41.53;16.50;;;1.50;99.90;;;;;;5013657;28;20190;-59
2021/11/26 09:21:47;;;;;;;49.23;20.63;;;1.60;99.90;;;;;;5014467;28;20680;-58
2021/11/26 09:24:12;;;;;;;46.37;18.83;;;1.60;99.90;;;;;;5012648;28;20184;-58
2021/11/26 09:26:39;;;;;;;45.77;17.90;;;1.60;99.90;;;;;;5020296;28;20178;-56
2021/11/26 09:29:05;;;;;;;45.23;17.97;;;1.70;99.90;;;;;;5020322;28;20176;-57
2021/11/26 09:31:31;;;;;;;56.23;21.53;;;1.80;99.90;;;;;;5014886;28;20451;-59
2021/11/26 09:33:57;;;;;;;41.20;16.83;;;1.90;99.90;;;;;;5024064;28;20433;-58
2021/11/26 09:36:24;;;;;;;48.73;17.50;;;1.90;99.90;;;;;;5015512;28;20442;-57
2021/11/26 09:38:50;;;;;;;41.87;17.90;;;2.00;99.90;;;;;;5023398;28;20418;-59
2021/11/26 09:41:17;;;;;;;49.20;17.93;;;2.00;99.90;;;;;;5021479;28;20456;-57
2021/11/26 09:43:46;;;;;;;42.53;16.53;;;2.00;99.90;;;;;;5026770;28;20768;-57
2021/11/26 09:46:12;;;;;;;36.63;15.00;;;2.00;99.90;;;;;;5027190;28;20520;-57
2021/11/26 09:48:37;;;;;;;44.37;16.43;;;2.00;99.90;;;;;;5020918;28;20480;-58
2021/11/26 09:51:06;;;;;;;46.30;16.63;;;2.00;99.90;;;;;;5019000;28;20225;-57
2021/11/26 09:53:33;;;;;;;40.00;16.20;;;2.00;99.90;;;;;;5015764;28;20184;-57
2021/11/26 09:56:02;;;;;;;37.73;15.23;;;2.00;99.90;;;;;;5014170;28;20431;-58
2021/11/26 09:58:29;;;;;;;41.37;15.87;;;2.00;99.90;;;;;;5014393;28;20485;-57
2021/11/26 10:00:57;;;;;;;46.77;15.77;;;2.00;99.90;;;;;;5027050;28;20445;-58
2021/11/26 10:03:34;;;;;;;43.87;17.00;;;2.10;99.90;;;;;;5013079;28;20430;-57
2021/11/26 10:06:00;;;;;;;30.83;14.07;;;2.10;99.90;;;;;;5019059;28;20434;-57
2021/11/26 10:08:26;;;;;;;40.70;16.67;;;2.10;99.90;;;;;;5022511;28;20429;-59
2021/11/26 10:11:01;;;;;;;35.23;15.13;;;2.10;99.90;;;;;;5015155;28;20207;-57
2021/11/26 10:13:30;;;;;;;40.90;15.30;;;2.10;99.90;;;;;;5014581;28;20174;-57
2021/11/26 10:15:56;;;;;;;34.83;14.83;;;2.20;99.90;;;;;;5018304;28;20940;-58
2021/11/26 10:18:27;;;;;;;39.97;15.07;;;2.10;99.90;;;;;;5015434;28;20421;-61
2021/11/26 10:21:05;;;;;;;31.40;13.47;;;2.10;99.90;;;;;;5016322;28;20213;-61
2021/11/26 10:23:47;;;;;;;31.83;14.40;;;2.10;99.90;;;;;;5020273;28;20422;-61
2021/11/26 10:26:20;;;;;;;33.63;14.70;;;2.10;99.90;;;;;;5022004;28;20430;-61
2021/11/26 10:28:51;;;;;;;30.90;13.13;;;2.00;99.90;;;;;;5030441;28;20431;-61
2021/11/26 10:31:26;;;;;;;32.60;13.80;;;2.00;99.90;;;;;;5023553;28;20471;-61
2021/11/26 10:33:57;;;;;;;34.43;14.40;;;2.00;99.90;;;;;;5029513;28;20954;-61
2021/11/26 10:36:25;;;;;;;29.97;12.43;;;2.00;99.90;;;;;;5013925;28;20468;-61
2021/11/26 10:38:50;;;;;;;27.90;12.20;;;2.10;99.90;;;;;;5010480;28;20505;-61
2021/11/26 10:41:24;;;;;;;23.00;10.60;;;2.10;99.90;;;;;;5024089;28;20885;-61
2021/11/26 10:43:56;;;;;;;27.53;11.33;;;2.10;99.90;;;;;;5013696;28;20208;-61
2021/11/26 10:46:42;;;;;;;25.60;12.37;;;2.20;99.90;;;;;;5013618;28;20421;-59
2021/11/26 11:00:01;;;;;;;22.33;10.60;;;2.40;99.90;;;;;;5019914;28;20432;-61
2021/11/26 11:02:30;;;;;;;23.10;10.00;;;2.40;99.90;;;;;;5017848;28;20418;-61
2021/11/26 11:04:56;;;;;;;22.23;10.20;;;2.40;99.90;;;;;;5018988;28;20953;-61
2021/11/26 11:07:22;;;;;;;22.40;10.80;;;2.50;99.90;;;;;;5021148;28;20465;-63
2021/11/26 11:09:56;;;;;;;22.07;10.30;;;2.50;99.90;;;;;;5023643;28;20477;-60
2021/11/26 11:12:34;;;;;;;16.20;8.10;;;2.60;99.90;;;;;;5022603;28;20414;-61
2021/11/26 11:15:03;;;;;;;17.30;7.50;;;2.60;99.90;;;;;;5017470;28;20414;-60
2021/11/26 11:17:30;;;;;;;16.83;8.70;;;2.60;99.90;;;;;;5011054;28;20768;-60
2021/11/26 11:19:59;;;;;;;15.17;7.87;;;2.60;99.90;;;;;;5022922;28;20435;-60
2021/11/26 11:22:25;;;;;;;16.77;7.43;;;2.50;99.90;;;;;;5028120;28;20418;-60
2021/11/26 11:24:51;;;;;;;16.00;8.40;;;2.50;99.90;;;;;;5016688;28;20442;-61
2021/11/26 11:27:18;;;;;;;18.40;7.97;;;2.50;99.90;;;;;;5028254;28;20476;-59
2021/11/26 11:29:43;;;;;;;20.73;9.20;;;2.40;99.90;;;;;;5017658;28;20210;-60
2021/11/26 11:32:12;;;;;;;17.60;8.30;;;2.40;99.90;;;;;;5014205;28;20422;-60
2021/11/26 11:34:40;;;;;;;16.83;8.83;;;2.40;99.90;;;;;;5017346;28;20213;-62
2021/11/26 11:37:10;;;;;;;15.50;8.67;;;2.40;99.90;;;;;;5024183;28;20437;-61
2021/11/26 11:39:50;;;;;;;18.53;8.70;;;2.50;99.90;;;;;;5026463;28;20950;-60
2021/11/26 11:42:43;;;;;;;17.33;8.93;;;2.60;99.90;;;;;;5011314;28;21008;-62
2021/11/26 11:45:16;;;;;;;16.53;9.23;;;2.60;99.90;;;;;;5025972;28;20433;-62
2021/11/26 11:47:51;;;;;;;24.93;9.10;;;2.70;99.90;;;;;;5025691;28;20579;-60
2021/11/26 11:50:23;;;;;;;18.60;8.70;;;2.70;99.90;;;;;;5019428;28;20515;-62
2021/11/26 11:52:57;;;;;;;21.67;9.33;;;2.70;99.90;;;;;;5021923;28;20445;-62
2021/11/26 11:55:32;;;;;;;23.03;10.40;;;2.70;99.90;;;;;;5016572;28;20814;-60
2021/11/26 11:58:21;;;;;;;23.00;10.47;;;2.70;99.90;;;;;;5019246;28;20421;-61
2021/11/26 12:00:53;;;;;;;23.67;9.97;;;2.60;99.90;;;;;;5022714;28;20451;-61
2021/11/26 12:03:21;;;;;;;25.20;10.43;;;2.60;99.90;;;;;;5014982;28;20509;-61
2021/11/26 12:05:58;;;;;;;25.33;11.67;;;2.60;99.90;;;;;;5022474;28;20418;-60
2021/11/26 12:08:25;;;;;;;28.63;9.80;;;2.60;99.90;;;;;;5011450;28;20431;-58
2021/11/26 12:10:59;;;;;;;20.27;9.83;;;2.60;99.90;;;;;;5021512;28;20462;-59
2021/11/26 12:13:36;;;;;;;28.73;10.23;;;2.60;99.90;;;;;;5023163;28;20407;-59
2021/11/26 12:16:03;;;;;;;25.80;11.27;;;2.60;99.90;;;;;;5009746;28;21070;-58
2021/11/26 12:18:36;;;;;;;23.13;10.17;;;2.60;99.90;;;;;;5016973;28;21196;-58
2021/11/26 12:21:02;;;;;;;25.70;11.27;;;2.60;99.90;;;;;;5013782;28;20464;-59
2021/11/26 12:23:33;;;;;;;16.67;8.57;;;2.70;99.90;;;;;;5010208;28;20426;-57
2021/11/26 12:28:44;;;;;;;20.87;9.77;;;2.70;99.90;;;;;;5018531;28;20484;-54
2021/11/26 12:31:11;;;;;;;19.87;9.47;;;2.70;99.90;;;;;;5009659;28;20848;-61
2021/11/26 12:33:38;;;;;;;23.30;10.43;;;2.70;99.90;;;;;;5027957;28;20906;-61
2021/11/26 12:36:34;;;;;;;23.10;10.30;;;2.70;99.90;;;;;;5016696;28;20488;-60
2021/11/26 12:39:06;;;;;;;21.70;9.27;;;2.70;99.90;;;;;;5008240;28;20435;-62
2021/11/26 12:41:41;;;;;;;14.97;8.50;;;2.70;99.90;;;;;;5007583;28;21047;-62
2021/11/26 12:44:11;;;;;;;16.27;8.30;;;2.70;99.90;;;;;;5008414;28;20469;-61
2021/11/26 12:46:39;;;;;;;16.10;8.20;;;2.70;99.90;;;;;;5008124;28;20429;-62
2021/11/26 12:51:54;;;;;;;15.53;8.60;;;2.70;99.90;;;;;;5022906;28;21044;-62
2021/11/26 12:54:27;;;;;;;16.47;8.30;;;2.70;99.90;;;;;;5018569;28;20428;-62
2021/11/26 12:56:55;;;;;;;16.27;7.70;;;2.70;99.90;;;;;;5019271;28;21021;-62